sensor_id;sensor_type;location;lat;lon;timestamp;temperature;humidity
45785;DHT22;31489;51.404;5.474;2023-03-03T00:00:08;7.90;52.40
45785;DHT22;31489;51.404;5.474;2023-03-03T00:02:34;7.90;52.20
45785;DHT22;31489;51.404;5.474;2023-03-03T00:05:00;7.90;52.30
45785;DHT22;31489;51.404;5.474;2023-03-03T00:07:25;7.80;52.40
45785;DHT22;31489;51.404;5.474;2023-03-03T00:09:51;7.80;52.30
45785;DHT22;31489;51.404;5.474;2023-03-03T00:12:24;7.80;52.50
45785;DHT22;31489;51.404;5.474;2023-03-03T00:14:51;7.80;52.70
45785;DHT22;31489;51.404;5.474;2023-03-03T00:17:22;7.80;52.50
45785;DHT22;31489;51.404;5.474;2023-03-03T00:19:49;7.70;52.90
45785;DHT22;31489;51.404;5.474;2023-03-03T00:22:35;7.70;52.60
45785;DHT22;31489;51.404;5.474;2023-03-03T00:27:48;7.60;53.40
45785;DHT22;31489;51.404;5.474;2023-03-03T00:30:23;7.60;52.70
45785;DHT22;31489;51.404;5.474;2023-03-03T00:32:52;7.60;53.40
45785;DHT22;31489;51.404;5.474;2023-03-03T00:35:28;7.50;52.90
45785;DHT22;31489;51.404;5.474;2023-03-03T00:38:01;7.50;53.40
45785;DHT22;31489;51.404;5.474;2023-03-03T00:40:36;7.50;53.10
45785;DHT22;31489;51.404;5.474;2023-03-03T00:43:14;7.50;53.20
45785;DHT22;31489;51.404;5.474;2023-03-03T00:45:45;7.50;54.00
45785;DHT22;31489;51.404;5.474;2023-03-03T00:48:30;7.40;53.80
45785;DHT22;31489;51.404;5.474;2023-03-03T00:53:47;7.40;54.40
45785;DHT22;31489;51.404;5.474;2023-03-03T00:56:15;7.40;53.80
45785;DHT22;31489;51.404;5.474;2023-03-03T00:58:41;7.40;53.90
45785;DHT22;31489;51.404;5.474;2023-03-03T01:01:08;7.30;53.90
45785;DHT22;31489;51.404;5.474;2023-03-03T01:03:34;7.30;53.90
45785;DHT22;31489;51.404;5.474;2023-03-03T01:06:03;7.30;54.00
45785;DHT22;31489;51.404;5.474;2023-03-03T01:08:28;7.30;54.20
45785;DHT22;31489;51.404;5.474;2023-03-03T01:10:59;7.30;54.00
45785;DHT22;31489;51.404;5.474;2023-03-03T01:13:28;7.30;54.20
45785;DHT22;31489;51.404;5.474;2023-03-03T01:15:55;7.30;54.20
45785;DHT22;31489;51.404;5.474;2023-03-03T01:18:21;7.30;54.20
45785;DHT22;31489;51.404;5.474;2023-03-03T01:20:46;7.30;54.30
45785;DHT22;31489;51.404;5.474;2023-03-03T01:23:12;7.30;54.40
45785;DHT22;31489;51.404;5.474;2023-03-03T01:25:40;7.30;54.50
45785;DHT22;31489;51.404;5.474;2023-03-03T01:28:06;7.30;54.50
45785;DHT22;31489;51.404;5.474;2023-03-03T01:30:32;7.30;54.60
45785;DHT22;31489;51.404;5.474;2023-03-03T01:32:57;7.30;54.60
45785;DHT22;31489;51.404;5.474;2023-03-03T01:35:23;7.30;54.60
45785;DHT22;31489;51.404;5.474;2023-03-03T01:37:49;7.30;54.70
45785;DHT22;31489;51.404;5.474;2023-03-03T01:40:27;7.30;54.70
45785;DHT22;31489;51.404;5.474;2023-03-03T01:42:53;7.30;55.10
45785;DHT22;31489;51.404;5.474;2023-03-03T01:45:20;7.40;54.60
45785;DHT22;31489;51.404;5.474;2023-03-03T01:48:11;7.30;54.40
45785;DHT22;31489;51.404;5.474;2023-03-03T01:50:40;7.40;55.00
45785;DHT22;31489;51.404;5.474;2023-03-03T01:53:13;7.40;54.20
45785;DHT22;31489;51.404;5.474;2023-03-03T01:55:41;7.30;54.30
45785;DHT22;31489;51.404;5.474;2023-03-03T01:58:29;7.40;54.30
45785;DHT22;31489;51.404;5.474;2023-03-03T02:01:03;7.30;54.70
45785;DHT22;31489;51.404;5.474;2023-03-03T02:03:30;7.30;54.40
45785;DHT22;31489;51.404;5.474;2023-03-03T02:06:02;7.30;54.20
45785;DHT22;31489;51.404;5.474;2023-03-03T02:08:41;7.30;54.40
45785;DHT22;31489;51.404;5.474;2023-03-03T02:11:09;7.30;54.70
45785;DHT22;31489;51.404;5.474;2023-03-03T02:13:35;7.30;54.40
45785;DHT22;31489;51.404;5.474;2023-03-03T02:16:01;7.20;54.40
45785;DHT22;31489;51.404;5.474;2023-03-03T02:18:30;7.20;54.50
45785;DHT22;31489;51.404;5.474;2023-03-03T02:21:17;7.20;54.60
45785;DHT22;31489;51.404;5.474;2023-03-03T02:23:59;7.20;55.10
45785;DHT22;31489;51.404;5.474;2023-03-03T02:26:30;7.20;55.10
45785;DHT22;31489;51.404;5.474;2023-03-03T02:28:56;7.20;54.70
45785;DHT22;31489;51.404;5.474;2023-03-03T02:31:24;7.20;54.80
45785;DHT22;31489;51.404;5.474;2023-03-03T02:33:52;7.20;54.90
45785;DHT22;31489;51.404;5.474;2023-03-03T02:36:38;7.20;54.90
45785;DHT22;31489;51.404;5.474;2023-03-03T02:39:19;7.20;55.50
45785;DHT22;31489;51.404;5.474;2023-03-03T02:44:22;7.20;55.30
45785;DHT22;31489;51.404;5.474;2023-03-03T02:46:49;7.10;55.10
45785;DHT22;31489;51.404;5.474;2023-03-03T02:49:19;7.10;54.80
45785;DHT22;31489;51.404;5.474;2023-03-03T02:51:45;7.20;54.90
45785;DHT22;31489;51.404;5.474;2023-03-03T02:54:12;7.10;54.80
45785;DHT22;31489;51.404;5.474;2023-03-03T02:56:38;7.10;54.90
45785;DHT22;31489;51.404;5.474;2023-03-03T02:59:04;7.10;54.90
45785;DHT22;31489;51.404;5.474;2023-03-03T03:01:39;7.10;55.00
45785;DHT22;31489;51.404;5.474;2023-03-03T03:06:36;7.10;55.00
45785;DHT22;31489;51.404;5.474;2023-03-03T03:09:02;7.10;55.00
45785;DHT22;31489;51.404;5.474;2023-03-03T03:11:28;7.10;55.10
45785;DHT22;31489;51.404;5.474;2023-03-03T03:13:54;7.10;55.10
45785;DHT22;31489;51.404;5.474;2023-03-03T03:16:20;7.10;55.10
45785;DHT22;31489;51.404;5.474;2023-03-03T03:18:45;7.00;55.10
45785;DHT22;31489;51.404;5.474;2023-03-03T03:21:12;7.00;55.10
45785;DHT22;31489;51.404;5.474;2023-03-03T03:23:38;7.00;55.20
45785;DHT22;31489;51.404;5.474;2023-03-03T03:26:05;7.00;55.20
45785;DHT22;31489;51.404;5.474;2023-03-03T03:28:34;7.00;55.20
45785;DHT22;31489;51.404;5.474;2023-03-03T03:31:03;6.90;55.30
45785;DHT22;31489;51.404;5.474;2023-03-03T03:33:31;7.00;55.50
45785;DHT22;31489;51.404;5.474;2023-03-03T03:35:57;7.00;55.40
45785;DHT22;31489;51.404;5.474;2023-03-03T03:38:23;7.00;55.50
45785;DHT22;31489;51.404;5.474;2023-03-03T03:41:02;7.00;55.50
45785;DHT22;31489;51.404;5.474;2023-03-03T03:43:29;7.00;55.90
45785;DHT22;31489;51.404;5.474;2023-03-03T03:45:55;7.00;55.50
45785;DHT22;31489;51.404;5.474;2023-03-03T03:48:21;7.00;55.50
45785;DHT22;31489;51.404;5.474;2023-03-03T03:50:48;7.00;55.60
45785;DHT22;31489;51.404;5.474;2023-03-03T03:53:15;7.00;55.60
45785;DHT22;31489;51.404;5.474;2023-03-03T03:55:40;7.00;55.50
45785;DHT22;31489;51.404;5.474;2023-03-03T03:58:06;7.00;55.60
45785;DHT22;31489;51.404;5.474;2023-03-03T04:00:35;7.00;55.70
45785;DHT22;31489;51.404;5.474;2023-03-03T04:03:01;6.90;55.70
45785;DHT22;31489;51.404;5.474;2023-03-03T04:05:27;6.90;55.70
45785;DHT22;31489;51.404;5.474;2023-03-03T04:07:52;6.90;55.80
45785;DHT22;31489;51.404;5.474;2023-03-03T04:10:18;6.90;55.90
45785;DHT22;31489;51.404;5.474;2023-03-03T04:12:44;7.00;55.90
45785;DHT22;31489;51.404;5.474;2023-03-03T04:15:12;7.00;55.90
45785;DHT22;31489;51.404;5.474;2023-03-03T04:17:39;7.00;55.90
45785;DHT22;31489;51.404;5.474;2023-03-03T04:20:05;7.00;55.90
45785;DHT22;31489;51.404;5.474;2023-03-03T04:22:32;7.00;55.90
45785;DHT22;31489;51.404;5.474;2023-03-03T04:25:03;7.00;56.50
45785;DHT22;31489;51.404;5.474;2023-03-03T04:27:32;7.00;56.20
45785;DHT22;31489;51.404;5.474;2023-03-03T04:29:58;7.00;56.20
45785;DHT22;31489;51.404;5.474;2023-03-03T04:32:24;7.00;55.90
45785;DHT22;31489;51.404;5.474;2023-03-03T04:34:50;7.00;55.90
45785;DHT22;31489;51.404;5.474;2023-03-03T04:37:19;7.00;55.90
45785;DHT22;31489;51.404;5.474;2023-03-03T04:39:44;7.00;55.90
45785;DHT22;31489;51.404;5.474;2023-03-03T04:42:13;7.00;55.90
45785;DHT22;31489;51.404;5.474;2023-03-03T04:44:38;7.00;56.00
45785;DHT22;31489;51.404;5.474;2023-03-03T04:47:04;6.90;55.90
45785;DHT22;31489;51.404;5.474;2023-03-03T04:49:30;6.90;56.00
45785;DHT22;31489;51.404;5.474;2023-03-03T04:51:56;6.90;56.10
45785;DHT22;31489;51.404;5.474;2023-03-03T04:54:22;6.90;56.10
45785;DHT22;31489;51.404;5.474;2023-03-03T04:56:48;7.00;56.10
45785;DHT22;31489;51.404;5.474;2023-03-03T04:59:13;6.90;56.10
45785;DHT22;31489;51.404;5.474;2023-03-03T05:01:40;6.90;56.10
45785;DHT22;31489;51.404;5.474;2023-03-03T05:04:06;7.00;56.10
45785;DHT22;31489;51.404;5.474;2023-03-03T05:06:32;7.00;56.10
45785;DHT22;31489;51.404;5.474;2023-03-03T05:08:58;7.00;56.10
45785;DHT22;31489;51.404;5.474;2023-03-03T05:11:23;7.00;56.10
45785;DHT22;31489;51.404;5.474;2023-03-03T05:13:49;6.90;56.00
45785;DHT22;31489;51.404;5.474;2023-03-03T05:16:15;6.90;56.00
45785;DHT22;31489;51.404;5.474;2023-03-03T05:18:41;6.90;56.10
45785;DHT22;31489;51.404;5.474;2023-03-03T05:21:06;6.90;56.10
45785;DHT22;31489;51.404;5.474;2023-03-03T05:23:35;6.90;56.10
45785;DHT22;31489;51.404;5.474;2023-03-03T05:26:00;6.90;56.20
45785;DHT22;31489;51.404;5.474;2023-03-03T05:28:26;6.90;56.20
45785;DHT22;31489;51.404;5.474;2023-03-03T05:30:52;6.90;56.30
45785;DHT22;31489;51.404;5.474;2023-03-03T05:33:17;6.90;56.40
45785;DHT22;31489;51.404;5.474;2023-03-03T05:35:44;6.90;56.40
45785;DHT22;31489;51.404;5.474;2023-03-03T05:38:10;6.90;56.50
45785;DHT22;31489;51.404;5.474;2023-03-03T05:40:36;6.90;56.40
45785;DHT22;31489;51.404;5.474;2023-03-03T05:43:05;6.90;56.50
45785;DHT22;31489;51.404;5.474;2023-03-03T05:45:31;6.90;56.50
45785;DHT22;31489;51.404;5.474;2023-03-03T05:47:57;6.90;56.40
45785;DHT22;31489;51.404;5.474;2023-03-03T05:50:23;6.90;56.30
45785;DHT22;31489;51.404;5.474;2023-03-03T05:52:50;6.90;56.30
45785;DHT22;31489;51.404;5.474;2023-03-03T05:55:17;6.90;56.30
45785;DHT22;31489;51.404;5.474;2023-03-03T05:57:45;6.90;56.20
45785;DHT22;31489;51.404;5.474;2023-03-03T06:00:12;6.90;56.20
45785;DHT22;31489;51.404;5.474;2023-03-03T06:02:39;6.90;56.30
45785;DHT22;31489;51.404;5.474;2023-03-03T06:05:05;6.90;56.30
45785;DHT22;31489;51.404;5.474;2023-03-03T06:07:31;6.90;56.50
45785;DHT22;31489;51.404;5.474;2023-03-03T06:09:57;6.90;56.50
45785;DHT22;31489;51.404;5.474;2023-03-03T06:12:22;6.90;56.50
45785;DHT22;31489;51.404;5.474;2023-03-03T06:14:48;6.90;56.50
45785;DHT22;31489;51.404;5.474;2023-03-03T06:17:14;6.90;56.50
45785;DHT22;31489;51.404;5.474;2023-03-03T06:19:39;6.90;56.60
45785;DHT22;31489;51.404;5.474;2023-03-03T06:22:06;6.90;57.20
45785;DHT22;31489;51.404;5.474;2023-03-03T06:24:32;6.90;56.60
45785;DHT22;31489;51.404;5.474;2023-03-03T06:26:58;6.90;56.60
45785;DHT22;31489;51.404;5.474;2023-03-03T06:29:24;6.90;56.70
45785;DHT22;31489;51.404;5.474;2023-03-03T06:31:50;6.90;56.70
45785;DHT22;31489;51.404;5.474;2023-03-03T06:34:16;7.00;56.80
45785;DHT22;31489;51.404;5.474;2023-03-03T06:36:41;6.90;56.80
45785;DHT22;31489;51.404;5.474;2023-03-03T06:39:07;7.00;56.80
45785;DHT22;31489;51.404;5.474;2023-03-03T06:41:33;7.00;56.90
45785;DHT22;31489;51.404;5.474;2023-03-03T06:43:58;7.00;56.90
45785;DHT22;31489;51.404;5.474;2023-03-03T06:46:25;7.00;56.90
45785;DHT22;31489;51.404;5.474;2023-03-03T06:48:51;7.00;56.90
45785;DHT22;31489;51.404;5.474;2023-03-03T06:51:32;7.00;56.90
45785;DHT22;31489;51.404;5.474;2023-03-03T06:54:01;7.00;57.40
45785;DHT22;31489;51.404;5.474;2023-03-03T06:56:27;7.10;57.00
45785;DHT22;31489;51.404;5.474;2023-03-03T06:58:59;7.10;57.00
45785;DHT22;31489;51.404;5.474;2023-03-03T07:01:25;7.10;57.20
45785;DHT22;31489;51.404;5.474;2023-03-03T07:03:51;7.10;56.90
45785;DHT22;31489;51.404;5.474;2023-03-03T07:06:21;7.10;56.90
45785;DHT22;31489;51.404;5.474;2023-03-03T07:08:48;7.10;57.10
45785;DHT22;31489;51.404;5.474;2023-03-03T07:11:17;7.10;57.20
45785;DHT22;31489;51.404;5.474;2023-03-03T07:13:46;7.10;57.80
45785;DHT22;31489;51.404;5.474;2023-03-03T07:16:13;7.20;57.20
45785;DHT22;31489;51.404;5.474;2023-03-03T07:18:48;7.20;57.20
45785;DHT22;31489;51.404;5.474;2023-03-03T07:21:33;7.20;57.30
45785;DHT22;31489;51.404;5.474;2023-03-03T07:24:00;7.20;57.50
45785;DHT22;31489;51.404;5.474;2023-03-03T07:26:33;7.30;57.30
45785;DHT22;31489;51.404;5.474;2023-03-03T07:31:45;7.30;57.60
45785;DHT22;31489;51.404;5.474;2023-03-03T07:36:45;7.30;56.90
45785;DHT22;31489;51.404;5.474;2023-03-03T07:41:43;7.30;57.20
45785;DHT22;31489;51.404;5.474;2023-03-03T07:44:20;7.30;56.90
45785;DHT22;31489;51.404;5.474;2023-03-03T07:46:47;7.30;57.40
45785;DHT22;31489;51.404;5.474;2023-03-03T07:49:34;7.40;57.10
45785;DHT22;31489;51.404;5.474;2023-03-03T07:52:01;7.30;57.30
45785;DHT22;31489;51.404;5.474;2023-03-03T07:54:42;7.40;56.90
45785;DHT22;31489;51.404;5.474;2023-03-03T07:59:50;7.40;57.20
45785;DHT22;31489;51.404;5.474;2023-03-03T08:02:41;7.40;57.20
45785;DHT22;31489;51.404;5.474;2023-03-03T08:07:49;7.50;57.40
45785;DHT22;31489;51.404;5.474;2023-03-03T08:10:34;7.50;57.10
45785;DHT22;31489;51.404;5.474;2023-03-03T08:13:07;7.50;57.40
45785;DHT22;31489;51.404;5.474;2023-03-03T08:15:36;7.60;57.10
45785;DHT22;31489;51.404;5.474;2023-03-03T08:18:23;7.60;57.00
45785;DHT22;31489;51.404;5.474;2023-03-03T08:20:52;7.60;57.30
45785;DHT22;31489;51.404;5.474;2023-03-03T08:23:19;7.60;57.00
45785;DHT22;31489;51.404;5.474;2023-03-03T08:25:46;7.60;57.10
45785;DHT22;31489;51.404;5.474;2023-03-03T08:28:13;7.60;57.00
45785;DHT22;31489;51.404;5.474;2023-03-03T08:30:39;7.70;57.00
45785;DHT22;31489;51.404;5.474;2023-03-03T08:33:08;7.70;56.90
45785;DHT22;31489;51.404;5.474;2023-03-03T08:35:37;7.70;56.80
45785;DHT22;31489;51.404;5.474;2023-03-03T08:38:05;7.70;56.90
45785;DHT22;31489;51.404;5.474;2023-03-03T08:40:35;7.70;56.80
45785;DHT22;31489;51.404;5.474;2023-03-03T08:43:01;7.80;56.90
45785;DHT22;31489;51.404;5.474;2023-03-03T08:45:27;7.70;56.90
45785;DHT22;31489;51.404;5.474;2023-03-03T08:47:53;7.80;57.00
45785;DHT22;31489;51.404;5.474;2023-03-03T08:50:19;7.80;57.10
45785;DHT22;31489;51.404;5.474;2023-03-03T08:52:45;7.80;57.20
45785;DHT22;31489;51.404;5.474;2023-03-03T08:55:12;7.90;57.30
45785;DHT22;31489;51.404;5.474;2023-03-03T08:57:40;7.90;57.30
45785;DHT22;31489;51.404;5.474;2023-03-03T09:00:09;7.90;57.30
45785;DHT22;31489;51.404;5.474;2023-03-03T09:02:36;8.00;57.30
45785;DHT22;31489;51.404;5.474;2023-03-03T09:05:02;8.00;57.20
45785;DHT22;31489;51.404;5.474;2023-03-03T09:07:28;8.00;57.10
45785;DHT22;31489;51.404;5.474;2023-03-03T09:10:00;8.00;57.10
45785;DHT22;31489;51.404;5.474;2023-03-03T09:12:39;8.10;57.20
45785;DHT22;31489;51.404;5.474;2023-03-03T09:17:41;8.10;57.20
45785;DHT22;31489;51.404;5.474;2023-03-03T09:22:57;8.10;57.40
45785;DHT22;31489;51.404;5.474;2023-03-03T09:25:35;8.20;57.20
45785;DHT22;31489;51.404;5.474;2023-03-03T09:28:02;8.30;57.60
45785;DHT22;31489;51.404;5.474;2023-03-03T09:33:22;8.30;57.50
45785;DHT22;31489;51.404;5.474;2023-03-03T09:35:51;8.30;57.30
45785;DHT22;31489;51.404;5.474;2023-03-03T09:38:28;8.40;57.10
45785;DHT22;31489;51.404;5.474;2023-03-03T09:41:22;8.40;57.20
45785;DHT22;31489;51.404;5.474;2023-03-03T09:50:07;8.50;57.40
45785;DHT22;31489;51.404;5.474;2023-03-03T09:52:51;8.50;57.20
45785;DHT22;31489;51.404;5.474;2023-03-03T09:55:42;8.50;57.10
45785;DHT22;31489;51.404;5.474;2023-03-03T10:03:51;8.60;57.00
45785;DHT22;31489;51.404;5.474;2023-03-03T10:06:36;8.70;56.70
45785;DHT22;31489;51.404;5.474;2023-03-03T10:17:47;8.80;56.10
45785;DHT22;31489;51.404;5.474;2023-03-03T10:23:12;8.90;56.60
45785;DHT22;31489;51.404;5.474;2023-03-03T10:26:04;9.00;56.40
45785;DHT22;31489;51.404;5.474;2023-03-03T10:37:17;9.40;56.10
45785;DHT22;31489;51.404;5.474;2023-03-03T10:50:59;10.00;55.60
45785;DHT22;31489;51.404;5.474;2023-03-03T11:02:11;10.10;54.90
45785;DHT22;31489;51.404;5.474;2023-03-03T11:07:41;10.20;54.80
45785;DHT22;31489;51.404;5.474;2023-03-03T11:16:08;10.40;54.70
45785;DHT22;31489;51.404;5.474;2023-03-03T11:21:38;10.50;54.70
45785;DHT22;31489;51.404;5.474;2023-03-03T11:30:06;10.80;54.20
45785;DHT22;31489;51.404;5.474;2023-03-03T11:33:05;10.90;54.10
45785;DHT22;31489;51.404;5.474;2023-03-03T11:35:47;11.00;54.30
45785;DHT22;31489;51.404;5.474;2023-03-03T11:38:26;11.30;54.80
45785;DHT22;31489;51.404;5.474;2023-03-03T11:41:11;11.80;55.70
45785;DHT22;31489;51.404;5.474;2023-03-03T11:43:55;12.30;54.90
45785;DHT22;31489;51.404;5.474;2023-03-03T11:46:31;13.00;54.80
45785;DHT22;31489;51.404;5.474;2023-03-03T11:48:59;13.60;54.60
45785;DHT22;31489;51.404;5.474;2023-03-03T11:51:50;14.30;54.60
45785;DHT22;31489;51.404;5.474;2023-03-03T11:54:24;15.00;52.80
45785;DHT22;31489;51.404;5.474;2023-03-03T11:59:57;16.40;51.10
45785;DHT22;31489;51.404;5.474;2023-03-03T12:08:13;18.10;47.60
45785;DHT22;31489;51.404;5.474;2023-03-03T12:11:00;18.60;46.20
45785;DHT22;31489;51.404;5.474;2023-03-03T12:35:08;19.20;40.90
45785;DHT22;31489;51.404;5.474;2023-03-03T12:40:33;19.10;41.20
45785;DHT22;31489;51.404;5.474;2023-03-03T12:43:28;19.20;41.20
45785;DHT22;31489;51.404;5.474;2023-03-03T12:48:39;19.40;41.40
45785;DHT22;31489;51.404;5.474;2023-03-03T12:51:35;19.40;40.50
45785;DHT22;31489;51.404;5.474;2023-03-03T13:05:34;18.50;40.00
45785;DHT22;31489;51.404;5.474;2023-03-03T13:14:03;18.40;40.10
45785;DHT22;31489;51.404;5.474;2023-03-03T13:16:42;18.30;40.30
45785;DHT22;31489;51.404;5.474;2023-03-03T13:19:26;18.30;40.60
45785;DHT22;31489;51.404;5.474;2023-03-03T13:22:07;18.20;40.50
45785;DHT22;31489;51.404;5.474;2023-03-03T13:27:34;18.10;40.40
45785;DHT22;31489;51.404;5.474;2023-03-03T13:30:07;18.10;40.30
45785;DHT22;31489;51.404;5.474;2023-03-03T13:32:48;18.20;40.90
45785;DHT22;31489;51.404;5.474;2023-03-03T13:37:55;18.50;40.10
45785;DHT22;31489;51.404;5.474;2023-03-03T13:40:44;18.60;40.30
45785;DHT22;31489;51.404;5.474;2023-03-03T13:43:21;18.60;39.70
45785;DHT22;31489;51.404;5.474;2023-03-03T13:46:10;18.70;39.70
45785;DHT22;31489;51.404;5.474;2023-03-03T14:06:22;18.60;39.60
45785;DHT22;31489;51.404;5.474;2023-03-03T14:12:23;18.60;39.20
45785;DHT22;31489;51.404;5.474;2023-03-03T14:14:54;18.50;39.10
45785;DHT22;31489;51.404;5.474;2023-03-03T14:17:37;18.60;39.30
45785;DHT22;31489;51.404;5.474;2023-03-03T14:22:45;18.50;38.80
45785;DHT22;31489;51.404;5.474;2023-03-03T14:25:14;18.50;38.90
45785;DHT22;31489;51.404;5.474;2023-03-03T14:30:24;18.40;38.90
45785;DHT22;31489;51.404;5.474;2023-03-03T14:40:35;18.40;39.00
45785;DHT22;31489;51.404;5.474;2023-03-03T14:43:05;18.40;39.10
45785;DHT22;31489;51.404;5.474;2023-03-03T14:45:43;18.40;39.10
45785;DHT22;31489;51.404;5.474;2023-03-03T14:48:21;18.40;39.10
45785;DHT22;31489;51.404;5.474;2023-03-03T14:51:31;18.40;38.60
45785;DHT22;31489;51.404;5.474;2023-03-03T14:53:57;18.40;38.80
45785;DHT22;31489;51.404;5.474;2023-03-03T14:59:19;18.50;38.70
45785;DHT22;31489;51.404;5.474;2023-03-03T15:01:46;18.40;38.70
45785;DHT22;31489;51.404;5.474;2023-03-03T15:04:26;18.40;38.50
45785;DHT22;31489;51.404;5.474;2023-03-03T15:06:54;18.40;38.00
45785;DHT22;31489;51.404;5.474;2023-03-03T15:09:27;18.30;38.10
45785;DHT22;31489;51.404;5.474;2023-03-03T15:15:36;18.00;38.40
45785;DHT22;31489;51.404;5.474;2023-03-03T15:20:34;17.70;38.50
45785;DHT22;31489;51.404;5.474;2023-03-03T15:23:30;17.50;38.70
45785;DHT22;31489;51.404;5.474;2023-03-03T15:29:07;17.20;39.00
45785;DHT22;31489;51.404;5.474;2023-03-03T15:32:12;17.00;39.10
45785;DHT22;31489;51.404;5.474;2023-03-03T15:37:31;16.70;39.30
45785;DHT22;31489;51.404;5.474;2023-03-03T15:43:03;16.50;40.00
45785;DHT22;31489;51.404;5.474;2023-03-03T15:48:21;16.30;40.30
45785;DHT22;31489;51.404;5.474;2023-03-03T15:51:07;16.20;40.40
45785;DHT22;31489;51.404;5.474;2023-03-03T15:53:52;16.10;40.50
45785;DHT22;31489;51.404;5.474;2023-03-03T15:56:47;16.10;40.50
45785;DHT22;31489;51.404;5.474;2023-03-03T16:02:20;16.00;40.70
45785;DHT22;31489;51.404;5.474;2023-03-03T16:07:57;15.90;40.80
45785;DHT22;31489;51.404;5.474;2023-03-03T16:10:54;15.80;40.90
45785;DHT22;31489;51.404;5.474;2023-03-03T16:16:29;15.70;41.10
45785;DHT22;31489;51.404;5.474;2023-03-03T16:19:02;15.70;40.90
45785;DHT22;31489;51.404;5.474;2023-03-03T16:29:46;15.50;41.20
45785;DHT22;31489;51.404;5.474;2023-03-03T16:32:39;15.40;41.30
45785;DHT22;31489;51.404;5.474;2023-03-03T16:35:41;15.40;41.00
45785;DHT22;31489;51.404;5.474;2023-03-03T16:41:05;15.30;41.20
45785;DHT22;31489;51.404;5.474;2023-03-03T16:44:08;15.20;41.30
45785;DHT22;31489;51.404;5.474;2023-03-03T16:46:45;15.10;40.90
45785;DHT22;31489;51.404;5.474;2023-03-03T16:54:50;15.00;41.40
45785;DHT22;31489;51.404;5.474;2023-03-03T17:00:20;14.90;41.40
45785;DHT22;31489;51.404;5.474;2023-03-03T17:03:02;14.80;41.60
45785;DHT22;31489;51.404;5.474;2023-03-03T17:05:48;14.80;41.70
45785;DHT22;31489;51.404;5.474;2023-03-03T17:08:25;14.70;41.70
45785;DHT22;31489;51.404;5.474;2023-03-03T17:11:22;14.70;42.00
45785;DHT22;31489;51.404;5.474;2023-03-03T17:14:17;14.60;41.90
45785;DHT22;31489;51.404;5.474;2023-03-03T17:16:57;14.60;42.10
45785;DHT22;31489;51.404;5.474;2023-03-03T17:32:57;14.30;42.00
45785;DHT22;31489;51.404;5.474;2023-03-03T17:43:49;14.10;42.80
45785;DHT22;31489;51.404;5.474;2023-03-03T17:52:15;13.90;43.10
45785;DHT22;31489;51.404;5.474;2023-03-03T18:00:12;13.80;43.30
45785;DHT22;31489;51.404;5.474;2023-03-03T18:11:13;13.70;43.60
45785;DHT22;31489;51.404;5.474;2023-03-03T18:16:41;13.60;43.60
45785;DHT22;31489;51.404;5.474;2023-03-03T18:19:45;13.60;43.70
45785;DHT22;31489;51.404;5.474;2023-03-03T18:22:49;13.60;43.70
45785;DHT22;31489;51.404;5.474;2023-03-03T18:25:23;13.50;43.70
45785;DHT22;31489;51.404;5.474;2023-03-03T18:28:17;13.50;43.60
45785;DHT22;31489;51.404;5.474;2023-03-03T18:31:02;13.40;43.70
45785;DHT22;31489;51.404;5.474;2023-03-03T18:38:57;13.30;43.60
45785;DHT22;31489;51.404;5.474;2023-03-03T18:41:30;13.20;43.40
45785;DHT22;31489;51.404;5.474;2023-03-03T18:44:28;13.20;43.70
45785;DHT22;31489;51.404;5.474;2023-03-03T18:46:55;13.20;43.80
45785;DHT22;31489;51.404;5.474;2023-03-03T18:52:30;13.10;43.70
45785;DHT22;31489;51.404;5.474;2023-03-03T18:55:21;13.10;43.50
45785;DHT22;31489;51.404;5.474;2023-03-03T18:58:21;13.00;43.70
45785;DHT22;31489;51.404;5.474;2023-03-03T19:01:31;13.00;43.70
45785;DHT22;31489;51.404;5.474;2023-03-03T19:06:29;12.90;43.80
45785;DHT22;31489;51.404;5.474;2023-03-03T19:09:04;12.80;44.00
45785;DHT22;31489;51.404;5.474;2023-03-03T19:11:41;12.80;43.90
45785;DHT22;31489;51.404;5.474;2023-03-03T19:14:33;12.70;43.90
45785;DHT22;31489;51.404;5.474;2023-03-03T19:21:17;12.60;44.00
45785;DHT22;31489;51.404;5.474;2023-03-03T19:23:23;12.60;44.20
45785;DHT22;31489;51.404;5.474;2023-03-03T19:32:47;12.40;44.00
45785;DHT22;31489;51.404;5.474;2023-03-03T19:51:51;12.10;44.20
45785;DHT22;31489;51.404;5.474;2023-03-03T19:54:24;12.10;44.50
45785;DHT22;31489;51.404;5.474;2023-03-03T19:56:56;12.00;44.40
45785;DHT22;31489;51.404;5.474;2023-03-03T19:59:32;12.00;44.50
45785;DHT22;31489;51.404;5.474;2023-03-03T20:04:55;12.00;44.70
45785;DHT22;31489;51.404;5.474;2023-03-03T20:10:48;11.90;44.70
45785;DHT22;31489;51.404;5.474;2023-03-03T20:27:16;11.90;45.20
45785;DHT22;31489;51.404;5.474;2023-03-03T20:32:47;11.90;45.20
45785;DHT22;31489;51.404;5.474;2023-03-03T20:35:29;11.90;45.50
45785;DHT22;31489;51.404;5.474;2023-03-03T20:38:22;11.90;45.30
45785;DHT22;31489;51.404;5.474;2023-03-03T20:46:25;11.90;45.50
45785;DHT22;31489;51.404;5.474;2023-03-03T20:54:30;11.90;45.60
45785;DHT22;31489;51.404;5.474;2023-03-03T20:57:10;11.90;45.70
45785;DHT22;31489;51.404;5.474;2023-03-03T21:05:18;11.80;45.70
45785;DHT22;31489;51.404;5.474;2023-03-03T21:10:22;11.80;45.70
45785;DHT22;31489;51.404;5.474;2023-03-03T21:15:58;11.80;45.80
45785;DHT22;31489;51.404;5.474;2023-03-03T21:18:28;11.70;45.90
45785;DHT22;31489;51.404;5.474;2023-03-03T21:20:54;11.70;45.90
45785;DHT22;31489;51.404;5.474;2023-03-03T21:23:19;11.70;45.80
45785;DHT22;31489;51.404;5.474;2023-03-03T21:25:52;11.70;46.00
45785;DHT22;31489;51.404;5.474;2023-03-03T21:28:32;11.70;46.10
45785;DHT22;31489;51.404;5.474;2023-03-03T21:31:05;11.70;46.10
45785;DHT22;31489;51.404;5.474;2023-03-03T21:36:13;11.60;46.10
45785;DHT22;31489;51.404;5.474;2023-03-03T21:38:39;11.60;46.10
45785;DHT22;31489;51.404;5.474;2023-03-03T21:41:06;11.60;46.10
45785;DHT22;31489;51.404;5.474;2023-03-03T21:46:02;11.50;46.20
45785;DHT22;31489;51.404;5.474;2023-03-03T21:48:31;11.50;46.20
45785;DHT22;31489;51.404;5.474;2023-03-03T21:50:56;11.40;46.30
45785;DHT22;31489;51.404;5.474;2023-03-03T21:53:22;11.40;46.50
45785;DHT22;31489;51.404;5.474;2023-03-03T21:55:49;11.40;46.50
45785;DHT22;31489;51.404;5.474;2023-03-03T21:58:17;11.40;46.50
45785;DHT22;31489;51.404;5.474;2023-03-03T22:00:43;11.40;46.60
45785;DHT22;31489;51.404;5.474;2023-03-03T22:03:09;11.40;46.50
45785;DHT22;31489;51.404;5.474;2023-03-03T22:05:35;11.40;46.70
45785;DHT22;31489;51.404;5.474;2023-03-03T22:08:01;11.40;46.80
45785;DHT22;31489;51.404;5.474;2023-03-03T22:10:27;11.30;46.80
45785;DHT22;31489;51.404;5.474;2023-03-03T22:12:53;11.30;46.80
45785;DHT22;31489;51.404;5.474;2023-03-03T22:15:18;11.30;46.90
45785;DHT22;31489;51.404;5.474;2023-03-03T22:17:44;11.30;47.10
45785;DHT22;31489;51.404;5.474;2023-03-03T22:20:11;11.30;47.00
45785;DHT22;31489;51.404;5.474;2023-03-03T22:22:39;11.30;47.10
45785;DHT22;31489;51.404;5.474;2023-03-03T22:25:05;11.30;47.20
45785;DHT22;31489;51.404;5.474;2023-03-03T22:27:31;11.30;47.20